Terminal Aerodrome Forecast
Issued by NWS

Home | Current Version | Previous Version | Text Only | Print | Product List | Glossary On
Versions: 1 2 3 4 5 6 7 8 9 10 11 12 13
000
FTUS41 KBTV 061120
TAFMPV
TAF
KMPV 061120Z 0612/0712 35004KT P6SM SCT200
     FM061700 04008KT P6SM SCT200
     FM062000 09010KT P6SM BKN060
     FM062300 13007KT P6SM BKN060
     FM070600 18006KT P6SM BKN015 OVC060=

USA.gov is the U.S. government's official web portal to all federal, state and local government web resources and services.